GCTS/TFS METAR and TAF weather

Enter ICAO airport designator
Station Type Date Time Source
GCTS METAR 2020/07/14 21:30 UTC NOAA

GCTS 142130Z 30009KT CAVOK 23/19 Q1013 NOSIG


Station Type Date Time Source
GCTS Decoded METAR 2020/07/14 21:30 UTC NOAA

Tenerife Sur, Spain (GCTS) 28-03N 016-34W 77M
Jul 14, 2020 - 05:30 PM EDT / 2020.07.14 2130 UTC
Wind: from the WNW (300 degrees) at 10 MPH (9 KT):0
Visibility: greater than 7 mile(s):0
Temperature: 73 F (23 C)
Dew Point: 66 F (19 C)
Relative Humidity: 78%
Pressure (altimeter): 29.91 in. Hg (1013 hPa)
ob: GCTS 142130Z 30009KT CAVOK 23/19 Q1013 NOSIG
cycle: 21

Station Type Date Time Source
GCTS TAF 2020/07/14 21:27 UTC NOAA

TAF GCTS 142000Z 1421/1521 27006KT CAVOK TX28/1514Z TN22/1506Z
BECMG 1509/1511 07018KT

Example: see airport list